Time;durP1;ratioP1;P1;durP2;ratioP2;P2;SDS_P1;SDS_P2;PMS_P1;PMS_P2;Temp;Humidity;BMP_temperature;BMP_pressure;BME280_temperature;BME280_humidity;BME280_pressure;Samples;Min_cycle;Max_cycle;Signal;HPM_P1;HPM_P2
2022/04/06 00:01:07;;;;;;;;;;;;;;;;;;5091847;28;19912;-80
2022/04/06 00:03:32;;;;;;;;;;;;;;;;;;5104564;28;19960;-80
2022/04/06 00:05:57;;;;;;;;;;;;;;;;;;5084905;28;19954;-80
2022/04/06 00:08:22;;;;;;;;;;;;;;;;;;5104738;28;20007;-80
2022/04/06 00:10:47;;;;;;;;;;;;;;;;;;5076766;28;20018;-80
2022/04/06 00:13:13;;;;;;;;;;;;;;;;;;5085754;28;19947;-80
2022/04/06 00:15:38;;;;;;;;;;;;;;;;;;5106139;28;19919;-80
2022/04/06 00:18:03;;;;;;;;;;;;;;;;;;5083996;28;19919;-80
2022/04/06 00:20:28;;;;;;;;;;;;;;;;;;5087020;28;19920;-80
2022/04/06 00:22:53;;;;;;;;;;;;;;;;;;5070523;28;19913;-80
2022/04/06 00:25:18;;;;;;;;;;;;;;;;;;5071934;28;19916;-80
2022/04/06 00:27:43;;;;;;;;;;;;;;;;;;5078082;28;20348;-80
2022/04/06 00:30:08;;;;;;;;;;;;;;;;;;5078131;28;19924;-80
2022/04/06 00:32:34;;;;;;;;;;;;;;;;;;5078084;28;19920;-80
2022/04/06 00:37:43;;;;;;;;;;;;;;;;;;5096296;28;20374;-80
2022/04/06 00:40:08;;;;;;;;;;;;;;;;;;5078039;28;19909;-80
2022/04/06 00:42:33;;;;;;;;;;;;;;;;;;5077992;28;19915;-80
2022/04/06 00:44:58;;;;;;;;;;;;;;;;;;5077831;28;19908;-80
2022/04/06 00:47:23;;;;;;;;;;;;;;;;;;5077730;28;19916;-80
2022/04/06 00:49:48;;;;;;;;;;;;;;;;;;5077695;28;19912;-80
2022/04/06 00:52:13;;;;;;;;;;;;;;;;;;5077655;28;20367;-80
2022/04/06 00:54:39;;;;;;;;;;;;;;;;;;5077697;28;19912;-80
2022/04/06 00:57:04;;;;;;;;;;;;;;;;;;5068967;28;19919;-80
2022/04/06 00:59:29;;;;;;;;;;;;;;;;;;5075503;28;20286;-80
2022/04/06 01:01:54;;;;;;;;;;;;;;;;;;5057577;28;19908;-80
2022/04/06 01:04:19;;;;;;;;;;;;;;;;;;5057477;28;19916;-80
2022/04/06 01:06:44;;;;;;;;;;;;;;;;;;5075325;28;19908;-80
2022/04/06 01:09:10;;;;;;;;;;;;;;;;;;5057425;28;19909;-80
2022/04/06 01:11:35;;;;;;;;;;;;;;;;;;5075216;28;19913;-81
2022/04/06 01:14:00;;;;;;;;;;;;;;;;;;5057300;28;20336;-80
2022/04/06 01:16:25;;;;;;;;;;;;;;;;;;5075205;28;20253;-80
2022/04/06 01:18:50;;;;;;;;;;;;;;;;;;5057141;28;19908;-80
2022/04/06 01:21:15;;;;;;;;;;;;;;;;;;5060737;28;19908;-80
2022/04/06 01:23:41;;;;;;;;;;;;;;;;;;5077136;28;19912;-80
2022/04/06 01:26:06;;;;;;;;;;;;;;;;;;5094282;28;20019;-80
2022/04/06 01:28:31;;;;;;;;;;;;;;;;;;5095229;28;19915;-80
2022/04/06 01:30:56;;;;;;;;;;;;;;;;;;5076958;28;20007;-80
2022/04/06 01:33:21;;;;;;;;;;;;;;;;;;5076993;28;19999;-80
2022/04/06 01:35:47;;;;;;;;;;;;;;;;;;5076907;28;20002;-80
2022/04/06 01:38:13;;;;;;;;;;;;;;;;;;5076907;28;19912;-80
2022/04/06 01:40:38;;;;;;;;;;;;;;;;;;5073275;28;20014;-80
2022/04/06 01:43:03;;;;;;;;;;;;;;;;;;5073386;28;19908;-80
2022/04/06 01:45:28;;;;;;;;;;;;;;;;;;5073389;28;20275;-80
2022/04/06 01:48:00;;;;;;;;;;;;;;;;;;5091979;28;19947;-79
2022/04/06 01:53:09;;;;;;;;;;;;;;;;;;5091411;28;20003;-80
2022/04/06 01:55:34;;;;;;;;;;;;;;;;;;5090006;28;19973;-79
2022/04/06 01:58:00;;;;;;;;;;;;;;;;;;5089663;28;20374;-80
2022/04/06 02:00:26;;;;;;;;;;;;;;;;;;5091147;28;19909;-80
2022/04/06 02:02:52;;;;;;;;;;;;;;;;;;5091091;28;20021;-80
2022/04/06 02:05:17;;;;;;;;;;;;;;;;;;5091140;28;20372;-79
2022/04/06 02:07:48;;;;;;;;;;;;;;;;;;5090963;28;19920;-80
2022/04/06 02:10:13;;;;;;;;;;;;;;;;;;5089766;28;19930;-79
2022/04/06 02:12:38;;;;;;;;;;;;;;;;;;5090968;28;19951;-79
2022/04/06 02:15:03;;;;;;;;;;;;;;;;;;5089667;28;20379;-79
2022/04/06 02:17:28;;;;;;;;;;;;;;;;;;5089734;28;20021;-79
2022/04/06 02:19:54;;;;;;;;;;;;;;;;;;5089548;28;20006;-79
2022/04/06 02:22:19;;;;;;;;;;;;;;;;;;5089458;28;20003;-80
2022/04/06 02:24:44;;;;;;;;;;;;;;;;;;5089473;28;19908;-79
2022/04/06 02:27:09;;;;;;;;;;;;;;;;;;5090556;28;19912;-80
2022/04/06 02:29:34;;;;;;;;;;;;;;;;;;5089392;28;19916;-80
2022/04/06 02:31:59;;;;;;;;;;;;;;;;;;5090378;28;19908;-80
2022/04/06 02:34:25;;;;;;;;;;;;;;;;;;5089249;28;19909;-80
2022/04/06 02:36:50;;;;;;;;;;;;;;;;;;5089211;28;20394;-79
2022/04/06 02:39:15;;;;;;;;;;;;;;;;;;5089092;28;19915;-80
2022/04/06 02:41:40;;;;;;;;;;;;;;;;;;5089102;28;19916;-79
2022/04/06 02:44:05;;;;;;;;;;;;;;;;;;5089037;28;19912;-80
2022/04/06 02:46:31;;;;;;;;;;;;;;;;;;5088753;28;19916;-79
2022/04/06 02:48:56;;;;;;;;;;;;;;;;;;5089013;28;20363;-79
2022/04/06 02:51:21;;;;;;;;;;;;;;;;;;5088988;28;19971;-79
2022/04/06 02:53:46;;;;;;;;;;;;;;;;;;5088803;28;20019;-80
2022/04/06 02:56:11;;;;;;;;;;;;;;;;;;5088944;28;20257;-79
2022/04/06 02:58:36;;;;;;;;;;;;;;;;;;5079530;28;19914;-79
2022/04/06 03:01:01;;;;;;;;;;;;;;;;;;5075394;28;19908;-79
2022/04/06 03:03:26;;;;;;;;;;;;;;;;;;5075235;28;20360;-79
2022/04/06 03:05:51;;;;;;;;;;;;;;;;;;5075140;28;19909;-79
2022/04/06 03:08:16;;;;;;;;;;;;;;;;;;5075111;28;19908;-80
2022/04/06 03:10:41;;;;;;;;;;;;;;;;;;5076405;28;20078;-79
2022/04/06 03:13:07;;;;;;;;;;;;;;;;;;5074985;28;19916;-80
2022/04/06 03:15:32;;;;;;;;;;;;;;;;;;5074889;28;19919;-79
2022/04/06 03:17:57;;;;;;;;;;;;;;;;;;5075025;28;20276;-79
2022/04/06 03:20:22;;;;;;;;;;;;;;;;;;5076120;28;19944;-79
2022/04/06 03:22:47;;;;;;;;;;;;;;;;;;5074925;28;20329;-79
2022/04/06 03:25:12;;;;;;;;;;;;;;;;;;5076051;28;19916;-80
2022/04/06 03:27:37;;;;;;;;;;;;;;;;;;5074712;28;19912;-80
2022/04/06 03:30:02;;;;;;;;;;;;;;;;;;5074767;28;20356;-79
2022/04/06 03:32:28;;;;;;;;;;;;;;;;;;5074734;28;20003;-80
2022/04/06 03:34:53;;;;;;;;;;;;;;;;;;5074626;28;19914;-79
2022/04/06 03:37:18;;;;;;;;;;;;;;;;;;5074488;28;19917;-79
2022/04/06 03:39:43;;;;;;;;;;;;;;;;;;5074524;28;20356;-79
2022/04/06 03:42:08;;;;;;;;;;;;;;;;;;5074469;28;20066;-79
2022/04/06 03:44:33;;;;;;;;;;;;;;;;;;5074511;28;20046;-79
2022/04/06 03:46:58;;;;;;;;;;;;;;;;;;5074165;28;19922;-80
2022/04/06 03:49:23;;;;;;;;;;;;;;;;;;5074276;28;19915;-79
2022/04/06 03:51:48;;;;;;;;;;;;;;;;;;5074261;28;19995;-80
2022/04/06 03:54:13;;;;;;;;;;;;;;;;;;5075591;28;19975;-79
2022/04/06 03:56:39;;;;;;;;;;;;;;;;;;5074070;28;20351;-79
2022/04/06 03:59:04;;;;;;;;;;;;;;;;;;5075398;28;20256;-79
2022/04/06 04:01:30;;;;;;;;;;;;;;;;;;5074213;28;20421;-80
2022/04/06 04:03:55;;;;;;;;;;;;;;;;;;5074056;28;19916;-79
2022/04/06 04:06:20;;;;;;;;;;;;;;;;;;5073728;28;19913;-79
2022/04/06 04:08:45;;;;;;;;;;;;;;;;;;5073877;28;19909;-80
2022/04/06 04:11:10;;;;;;;;;;;;;;;;;;5074417;28;20375;-80
2022/04/06 04:13:35;;;;;;;;;;;;;;;;;;5073895;28;20379;-80
2022/04/06 04:16:01;;;;;;;;;;;;;;;;;;5074996;28;19915;-80
2022/04/06 04:18:26;;;;;;;;;;;;;;;;;;5074992;28;19909;-79
2022/04/06 04:21:31;;;;;;;;;;;;;;;;;;5075029;28;19919;-80
2022/04/06 04:23:36;;;;;;;;;;;;;;;;;;5074693;28;19916;-80
2022/04/06 04:26:01;;;;;;;;;;;;;;;;;;5073514;28;19916;-80
2022/04/06 04:28:26;;;;;;;;;;;;;;;;;;5073576;28;20291;-79
2022/04/06 04:30:51;;;;;;;;;;;;;;;;;;5073582;28;19916;-80
2022/04/06 04:33:16;;;;;;;;;;;;;;;;;;5073429;28;19913;-79
2022/04/06 04:35:41;;;;;;;;;;;;;;;;;;5074547;28;19908;-80
2022/04/06 04:38:06;;;;;;;;;;;;;;;;;;5073282;28;19908;-80
2022/04/06 04:40:32;;;;;;;;;;;;;;;;;;5073241;28;19916;-80
2022/04/06 04:42:57;;;;;;;;;;;;;;;;;;5074593;28;19916;-80
2022/04/06 04:45:22;;;;;;;;;;;;;;;;;;5073190;28;20288;-80
2022/04/06 04:47:47;;;;;;;;;;;;;;;;;;5073089;28;20007;-80
2022/04/06 04:50:12;;;;;;;;;;;;;;;;;;5073170;28;20011;-80
2022/04/06 04:52:38;;;;;;;;;;;;;;;;;;5073186;28;20316;-80
2022/04/06 04:55:03;;;;;;;;;;;;;;;;;;5072845;28;19916;-79
2022/04/06 04:57:28;;;;;;;;;;;;;;;;;;5074377;28;19908;-80
2022/04/06 04:59:53;;;;;;;;;;;;;;;;;;5073054;28;20016;-80
2022/04/06 05:02:18;;;;;;;;;;;;;;;;;;5073038;28;19987;-79
2022/04/06 05:04:43;;;;;;;;;;;;;;;;;;5072960;28;19954;-80
2022/04/06 05:07:09;;;;;;;;;;;;;;;;;;5072735;28;19958;-80
2022/04/06 05:09:34;;;;;;;;;;;;;;;;;;5072890;28;19958;-79
2022/04/06 05:11:59;;;;;;;;;;;;;;;;;;5072821;28;20368;-80
2022/04/06 05:14:26;;;;;;;;;;;;;;;;;;5074014;28;19909;-80
2022/04/06 05:16:51;;;;;;;;;;;;;;;;;;5072753;28;19932;-80
2022/04/06 05:19:16;;;;;;;;;;;;;;;;;;5072786;28;20276;-79
2022/04/06 05:21:41;;;;;;;;;;;;;;;;;;5072463;28;20363;-80
2022/04/06 05:24:06;;;;;;;;;;;;;;;;;;5072737;28;19915;-80
2022/04/06 05:26:32;;;;;;;;;;;;;;;;;;5072430;28;19920;-79
2022/04/06 05:28:57;;;;;;;;;;;;;;;;;;5072626;28;19908;-79
2022/04/06 05:31:22;;;;;;;;;;;;;;;;;;5072603;28;20330;-79
2022/04/06 05:33:48;;;;;;;;;;;;;;;;;;5073880;28;19958;-79
2022/04/06 05:36:13;;;;;;;;;;;;;;;;;;5072486;28;20356;-80
2022/04/06 05:38:38;;;;;;;;;;;;;;;;;;5072488;28;19908;-80
2022/04/06 05:41:03;;;;;;;;;;;;;;;;;;5073713;28;20371;-79
2022/04/06 05:43:28;;;;;;;;;;;;;;;;;;5072554;28;19909;-80
2022/04/06 05:45:54;;;;;;;;;;;;;;;;;;5076552;28;20356;-79
2022/04/06 05:48:19;;;;;;;;;;;;;;;;;;5093894;28;19908;-80
2022/04/06 05:50:44;;;;;;;;;;;;;;;;;;5076021;28;19916;-80
2022/04/06 05:53:09;;;;;;;;;;;;;;;;;;5093746;28;19908;-79
2022/04/06 05:55:34;;;;;;;;;;;;;;;;;;5075511;28;20264;-79
2022/04/06 05:57:59;;;;;;;;;;;;;;;;;;5093764;28;20378;-79
2022/04/06 06:00:24;;;;;;;;;;;;;;;;;;5075578;28;19908;-80
2022/04/06 06:02:51;;;;;;;;;;;;;;;;;;5093804;28;19912;-80
2022/04/06 06:05:16;;;;;;;;;;;;;;;;;;5075667;28;19908;-80
2022/04/06 06:07:41;;;;;;;;;;;;;;;;;;5075499;28;19912;-80
2022/04/06 06:10:06;;;;;;;;;;;;;;;;;;5075527;28;20321;-79
2022/04/06 06:12:31;;;;;;;;;;;;;;;;;;5075538;28;19908;-79
2022/04/06 06:14:56;;;;;;;;;;;;;;;;;;5075446;28;19908;-80
2022/04/06 06:17:21;;;;;;;;;;;;;;;;;;5075662;28;20057;-79
2022/04/06 06:19:46;;;;;;;;;;;;;;;;;;5075401;28;19908;-80
2022/04/06 06:22:12;;;;;;;;;;;;;;;;;;5075438;28;20280;-80
2022/04/06 06:24:37;;;;;;;;;;;;;;;;;;5075451;28;19909;-79
2022/04/06 06:27:03;;;;;;;;;;;;;;;;;;5093329;28;19923;-79
2022/04/06 06:29:28;;;;;;;;;;;;;;;;;;5075502;28;19912;-80
2022/04/06 06:31:54;;;;;;;;;;;;;;;;;;5075457;28;19908;-80
2022/04/06 06:34:19;;;;;;;;;;;;;;;;;;5078291;28;19930;-81
2022/04/06 06:36:44;;;;;;;;;;;;;;;;;;5078506;28;19908;-81
2022/04/06 06:39:09;;;;;;;;;;;;;;;;;;5078388;28;19915;-83
2022/04/06 06:41:35;;;;;;;;;;;;;;;;;;5078639;28;20287;-80
2022/04/06 06:44:01;;;;;;;;;;;;;;;;;;5078872;28;19915;-79
2022/04/06 06:46:26;;;;;;;;;;;;;;;;;;5096361;28;20342;-79
2022/04/06 06:48:52;;;;;;;;;;;;;;;;;;5078728;28;19954;-80
2022/04/06 06:51:17;;;;;;;;;;;;;;;;;;5078613;28;19908;-80
2022/04/06 06:53:42;;;;;;;;;;;;;;;;;;5078521;28;20010;-80
2022/04/06 06:56:07;;;;;;;;;;;;;;;;;;5073904;28;20005;-80
2022/04/06 06:58:33;;;;;;;;;;;;;;;;;;5078531;28;20066;-80
2022/04/06 07:00:58;;;;;;;;;;;;;;;;;;5079555;28;20124;-80
2022/04/06 07:03:23;;;;;;;;;;;;;;;;;;5106980;28;19919;-80
2022/04/06 07:05:48;;;;;;;;;;;;;;;;;;5085019;28;19931;-80
2022/04/06 07:08:13;;;;;;;;;;;;;;;;;;5095080;28;19965;-80
2022/04/06 07:10:38;;;;;;;;;;;;;;;;;;5094508;28;19963;-80
2022/04/06 07:13:03;;;;;;;;;;;;;;;;;;5073346;28;19951;-79
2022/04/06 07:15:28;;;;;;;;;;;;;;;;;;5090190;28;19982;-80
2022/04/06 07:17:53;;;;;;;;;;;;;;;;;;5091940;28;19912;-79
2022/04/06 07:20:18;;;;;;;;;;;;;;;;;;5098034;28;20309;-80
2022/04/06 07:22:44;;;;;;;;;;;;;;;;;;5098350;28;19920;-80
2022/04/06 07:25:09;;;;;;;;;;;;;;;;;;5080385;28;19916;-80
2022/04/06 07:27:35;;;;;;;;;;;;;;;;;;5079686;28;20309;-79
2022/04/06 07:30:00;;;;;;;;;;;;;;;;;;5098205;28;19959;-80
2022/04/06 07:32:25;;;;;;;;;;;;;;;;;;5089489;28;19908;-80
2022/04/06 07:34:50;;;;;;;;;;;;;;;;;;5098311;28;19914;-80
2022/04/06 07:37:15;;;;;;;;;;;;;;;;;;5098129;28;19915;-80
2022/04/06 07:39:40;;;;;;;;;;;;;;;;;;5098182;28;20243;-80
2022/04/06 07:42:05;;;;;;;;;;;;;;;;;;5084029;28;19912;-80
2022/04/06 07:44:30;;;;;;;;;;;;;;;;;;5074553;28;19920;-79
2022/04/06 07:46:55;;;;;;;;;;;;;;;;;;5090233;28;19916;-80
2022/04/06 07:49:21;;;;;;;;;;;;;;;;;;5102274;28;20268;-80
2022/04/06 07:51:47;;;;;;;;;;;;;;;;;;5064267;28;20310;-80
2022/04/06 07:54:12;;;;;;;;;;;;;;;;;;5075675;28;19920;-80
2022/04/06 07:56:39;;;;;;;;;;;;;;;;;;5075895;28;19965;-80
2022/04/06 07:59:04;;;;;;;;;;;;;;;;;;5075964;28;19912;-80
2022/04/06 08:01:29;;;;;;;;;;;;;;;;;;5095370;28;20007;-80
2022/04/06 08:03:54;;;;;;;;;;;;;;;;;;5078641;28;20366;-79
2022/04/06 08:06:19;;;;;;;;;;;;;;;;;;5083674;28;19930;-79
2022/04/06 08:08:45;;;;;;;;;;;;;;;;;;5079859;28;20287;-79
2022/04/06 08:11:10;;;;;;;;;;;;;;;;;;5094694;28;19956;-80
2022/04/06 08:13:35;;;;;;;;;;;;;;;;;;5078612;28;20321;-80
2022/04/06 08:16:00;;;;;;;;;;;;;;;;;;5098307;28;19911;-80
2022/04/06 08:18:25;;;;;;;;;;;;;;;;;;5081359;28;19912;-80
2022/04/06 08:20:50;;;;;;;;;;;;;;;;;;5076412;28;19942;-81
2022/04/06 08:23:17;;;;;;;;;;;;;;;;;;5076532;28;19918;-80
2022/04/06 08:25:42;;;;;;;;;;;;;;;;;;5095115;28;19912;-81
2022/04/06 08:28:08;;;;;;;;;;;;;;;;;;5082651;28;19922;-80
2022/04/06 08:30:39;;;;;;;;;;;;;;;;;;5104218;28;19918;-81
2022/04/06 08:33:04;;;;;;;;;;;;;;;;;;5060653;28;20343;-80
2022/04/06 08:35:29;;;;;;;;;;;;;;;;;;5076746;28;20320;-81
2022/04/06 08:37:54;;;;;;;;;;;;;;;;;;5094195;28;19999;-80
2022/04/06 08:40:20;;;;;;;;;;;;;;;;;;5071072;28;19943;-81
2022/04/06 08:42:45;;;;;;;;;;;;;;;;;;5079307;28;19952;-80
2022/04/06 08:45:10;;;;;;;;;;;;;;;;;;5076782;28;19951;-80
2022/04/06 08:47:36;;;;;;;;;;;;;;;;;;5074721;28;20392;-80
2022/04/06 08:50:04;;;;;;;;;;;;;;;;;;5075545;28;19912;-81
2022/04/06 08:52:29;;;;;;;;;;;;;;;;;;5079493;28;19912;-81
2022/04/06 08:54:54;;;;;;;;;;;;;;;;;;5081929;28;19915;-81
2022/04/06 08:57:20;;;;;;;;;;;;;;;;;;5093659;28;20267;-80
2022/04/06 08:59:45;;;;;;;;;;;;;;;;;;5089002;28;20269;-80
2022/04/06 09:02:11;;;;;;;;;;;;;;;;;;5093889;28;19916;-82
2022/04/06 09:04:36;;;;;;;;;;;;;;;;;;5075816;28;19915;-81
2022/04/06 09:07:01;;;;;;;;;;;;;;;;;;5075037;28;19920;-80
2022/04/06 09:09:26;;;;;;;;;;;;;;;;;;5090959;28;19908;-81
2022/04/06 09:11:51;;;;;;;;;;;;;;;;;;5090284;28;19912;-84
2022/04/06 09:14:17;;;;;;;;;;;;;;;;;;5104983;28;19920;-83
2022/04/06 09:16:42;;;;;;;;;;;;;;;;;;5081393;28;19912;-86
2022/04/06 09:19:07;;;;;;;;;;;;;;;;;;5086852;28;19911;-86
2022/04/06 09:21:32;;;;;;;;;;;;;;;;;;5098124;28;19916;-85
2022/04/06 09:23:57;;;;;;;;;;;;;;;;;;5095390;28;19994;-86
2022/04/06 09:26:23;;;;;;;;;;;;;;;;;;5080789;28;19970;-81
2022/04/06 09:28:48;;;;;;;;;;;;;;;;;;5074148;28;19919;-87
2022/04/06 09:31:14;;;;;;;;;;;;;;;;;;5076605;28;19912;-88
2022/04/06 09:33:41;;;;;;;;;;;;;;;;;;5076020;28;20003;-84
2022/04/06 09:36:06;;;;;;;;;;;;;;;;;;5086602;28;19912;-86
2022/04/06 09:38:32;;;;;;;;;;;;;;;;;;5077302;28;19915;-88
2022/04/06 09:40:58;;;;;;;;;;;;;;;;;;5075682;28;20305;-84
2022/04/06 09:43:24;;;;;;;;;;;;;;;;;;5075761;28;19912;-82
2022/04/06 09:48:33;;;;;;;;;;;;;;;;;;5073921;28;19939;-84
2022/04/06 09:50:58;;;;;;;;;;;;;;;;;;5068074;28;20325;-83
2022/04/06 09:53:23;;;;;;;;;;;;;;;;;;5075184;28;19916;-87
2022/04/06 09:55:48;;;;;;;;;;;;;;;;;;5075416;28;20291;-85
2022/04/06 09:58:13;;;;;;;;;;;;;;;;;;5075296;28;19961;-87
2022/04/06 10:00:38;;;;;;;;;;;;;;;;;;5075529;28;20374;-87
2022/04/06 10:03:03;;;;;;;;;;;;;;;;;;5080927;28;20375;-87
2022/04/06 10:05:28;;;;;;;;;;;;;;;;;;5074318;28;19912;-87
2022/04/06 10:07:55;;;;;;;;;;;;;;;;;;5075459;28;19919;-86
2022/04/06 10:10:23;;;;;;;;;;;;;;;;;;5073604;28;19943;-86
2022/04/06 10:12:48;;;;;;;;;;;;;;;;;;5088117;28;19915;-86
2022/04/06 10:15:14;;;;;;;;;;;;;;;;;;5084757;28;19912;-85
2022/04/06 10:17:39;;;;;;;;;;;;;;;;;;5082931;28;20279;-85
2022/04/06 10:20:04;;;;;;;;;;;;;;;;;;5078881;28;20004;-85
2022/04/06 10:22:29;;;;;;;;;;;;;;;;;;5086259;28;19916;-85
2022/04/06 10:24:54;;;;;;;;;;;;;;;;;;5078852;28;19908;-85
2022/04/06 10:27:21;;;;;;;;;;;;;;;;;;5096448;28;19916;-86
2022/04/06 10:29:46;;;;;;;;;;;;;;;;;;5076684;28;19951;-85
2022/04/06 10:32:11;;;;;;;;;;;;;;;;;;5078183;28;19962;-85
2022/04/06 10:34:39;;;;;;;;;;;;;;;;;;5078221;28;19995;-86
2022/04/06 10:37:04;;;;;;;;;;;;;;;;;;5081619;28;19919;-85
2022/04/06 10:39:29;;;;;;;;;;;;;;;;;;5077627;28;19912;-86
2022/04/06 10:41:56;;;;;;;;;;;;;;;;;;5078411;28;19919;-85
2022/04/06 10:44:21;;;;;;;;;;;;;;;;;;5077352;28;19957;-85
2022/04/06 10:46:46;;;;;;;;;;;;;;;;;;5080422;28;19919;-85
2022/04/06 10:49:14;;;;;;;;;;;;;;;;;;5078342;28;19920;-85
2022/04/06 10:51:39;;;;;;;;;;;;;;;;;;5077801;28;19908;-85
2022/04/06 10:54:04;;;;;;;;;;;;;;;;;;5077687;28;20398;-85
2022/04/06 10:56:29;;;;;;;;;;;;;;;;;;5082912;28;19922;-85
2022/04/06 10:58:54;;;;;;;;;;;;;;;;;;5098710;28;19908;-86
2022/04/06 11:01:19;;;;;;;;;;;;;;;;;;5091134;28;19912;-85
2022/04/06 11:03:44;;;;;;;;;;;;;;;;;;5076881;28;19916;-86
2022/04/06 11:06:09;;;;;;;;;;;;;;;;;;5077302;28;19913;-86
2022/04/06 11:11:18;;;;;;;;;;;;;;;;;;5095640;28;19958;-85
2022/04/06 11:13:43;;;;;;;;;;;;;;;;;;5100178;28;19912;-85
2022/04/06 11:16:09;;;;;;;;;;;;;;;;;;5088281;28;19941;-85
2022/04/06 11:18:34;;;;;;;;;;;;;;;;;;5095469;28;20440;-85
2022/04/06 11:20:59;;;;;;;;;;;;;;;;;;5077280;28;19916;-86
2022/04/06 11:23:24;;;;;;;;;;;;;;;;;;5100998;28;19919;-86
2022/04/06 11:25:49;;;;;;;;;;;;;;;;;;5087090;28;19919;-85
2022/04/06 11:28:14;;;;;;;;;;;;;;;;;;5077587;28;19916;-85
2022/04/06 11:30:39;;;;;;;;;;;;;;;;;;5095550;28;20267;-85
2022/04/06 11:33:04;;;;;;;;;;;;;;;;;;5083062;28;19920;-85
2022/04/06 11:35:29;;;;;;;;;;;;;;;;;;5098502;28;19907;-85
2022/04/06 11:37:54;;;;;;;;;;;;;;;;;;5077835;28;20278;-85
2022/04/06 11:40:19;;;;;;;;;;;;;;;;;;5077356;28;19908;-85
2022/04/06 11:42:45;;;;;;;;;;;;;;;;;;5074951;28;20053;-84
2022/04/06 11:45:10;;;;;;;;;;;;;;;;;;5078960;28;19912;-83
2022/04/06 11:47:35;;;;;;;;;;;;;;;;;;5097787;28;19922;-86
2022/04/06 11:50:00;;;;;;;;;;;;;;;;;;5083170;28;20363;-86
2022/04/06 11:52:25;;;;;;;;;;;;;;;;;;5077138;28;19962;-86
2022/04/06 11:54:51;;;;;;;;;;;;;;;;;;5077336;28;19908;-86
2022/04/06 11:57:16;;;;;;;;;;;;;;;;;;5095460;28;20014;-86
2022/04/06 11:59:41;;;;;;;;;;;;;;;;;;5097537;28;19908;-86
2022/04/06 12:02:06;;;;;;;;;;;;;;;;;;5079841;28;19912;-86
2022/04/06 12:04:31;;;;;;;;;;;;;;;;;;5077248;28;19912;-86
2022/04/06 12:06:56;;;;;;;;;;;;;;;;;;5092314;28;19916;-86
2022/04/06 12:09:21;;;;;;;;;;;;;;;;;;5097530;28;19912;-86
2022/04/06 12:11:46;;;;;;;;;;;;;;;;;;5101300;28;19917;-86
2022/04/06 12:14:12;;;;;;;;;;;;;;;;;;5082577;28;19916;-86
2022/04/06 12:16:37;;;;;;;;;;;;;;;;;;5104077;28;19912;-86
2022/04/06 12:19:05;;;;;;;;;;;;;;;;;;5077135;28;19922;-86
2022/04/06 12:21:30;;;;;;;;;;;;;;;;;;5076530;28;19915;-86
2022/04/06 12:23:55;;;;;;;;;;;;;;;;;;5077173;28;19920;-86
2022/04/06 12:26:23;;;;;;;;;;;;;;;;;;5098313;28;20275;-86
2022/04/06 12:28:48;;;;;;;;;;;;;;;;;;5094978;28;20411;-86
2022/04/06 12:31:13;;;;;;;;;;;;;;;;;;5093957;28;20064;-86
2022/04/06 12:33:39;;;;;;;;;;;;;;;;;;5079088;28;20054;-86
2022/04/06 12:36:04;;;;;;;;;;;;;;;;;;5076533;28;19919;-86
2022/04/06 12:38:29;;;;;;;;;;;;;;;;;;5076786;28;19919;-86
2022/04/06 12:40:54;;;;;;;;;;;;;;;;;;5076139;28;19908;-86
2022/04/06 12:43:19;;;;;;;;;;;;;;;;;;5090064;28;19934;-87
2022/04/06 12:45:44;;;;;;;;;;;;;;;;;;5096276;28;20382;-86
2022/04/06 12:48:09;;;;;;;;;;;;;;;;;;5077942;28;19947;-86
2022/04/06 12:50:34;;;;;;;;;;;;;;;;;;5081293;28;20002;-85
2022/04/06 12:52:59;;;;;;;;;;;;;;;;;;5069387;28;19912;-87
2022/04/06 12:55:25;;;;;;;;;;;;;;;;;;5094153;28;20384;-86
2022/04/06 12:57:52;;;;;;;;;;;;;;;;;;5081358;28;19911;-86
2022/04/06 13:00:17;;;;;;;;;;;;;;;;;;5094088;28;19915;-86
2022/04/06 13:02:42;;;;;;;;;;;;;;;;;;5076431;28;19916;-86
2022/04/06 13:05:07;;;;;;;;;;;;;;;;;;5094379;28;19919;-86
2022/04/06 13:07:32;;;;;;;;;;;;;;;;;;5077545;28;20299;-86
2022/04/06 13:09:58;;;;;;;;;;;;;;;;;;5096249;28;19918;-86
2022/04/06 13:12:23;;;;;;;;;;;;;;;;;;5077292;28;19912;-86
2022/04/06 13:14:48;;;;;;;;;;;;;;;;;;5075878;28;19920;-86
2022/04/06 13:17:13;;;;;;;;;;;;;;;;;;5080029;28;20571;-86
2022/04/06 13:19:38;;;;;;;;;;;;;;;;;;5075941;28;19916;-86
2022/04/06 13:22:05;;;;;;;;;;;;;;;;;;5076360;28;19915;-86
2022/04/06 13:24:30;;;;;;;;;;;;;;;;;;5094467;28;19950;-86
2022/04/06 13:26:55;;;;;;;;;;;;;;;;;;5099565;28;19947;-86
2022/04/06 13:29:20;;;;;;;;;;;;;;;;;;5093734;28;19955;-86
2022/04/06 13:31:45;;;;;;;;;;;;;;;;;;5075772;28;20335;-86
2022/04/06 13:34:12;;;;;;;;;;;;;;;;;;5080092;28;20000;-86
2022/04/06 13:36:37;;;;;;;;;;;;;;;;;;5075624;28;20026;-86
2022/04/06 13:39:03;;;;;;;;;;;;;;;;;;5075688;28;19981;-86
2022/04/06 13:41:28;;;;;;;;;;;;;;;;;;5075448;28;20377;-86
2022/04/06 13:43:53;;;;;;;;;;;;;;;;;;5076260;28;19965;-86
2022/04/06 13:46:18;;;;;;;;;;;;;;;;;;5093213;28;20010;-86
2022/04/06 13:48:43;;;;;;;;;;;;;;;;;;5081674;28;20290;-86
2022/04/06 13:51:08;;;;;;;;;;;;;;;;;;5070841;28;19919;-85
2022/04/06 13:53:34;;;;;;;;;;;;;;;;;;5064425;28;20402;-86
2022/04/06 13:55:59;;;;;;;;;;;;;;;;;;5080153;28;19931;-85
2022/04/06 13:58:24;;;;;;;;;;;;;;;;;;5081775;28;19919;-85
2022/04/06 14:00:49;;;;;;;;;;;;;;;;;;5078008;28;19923;-85
2022/04/06 14:03:14;;;;;;;;;;;;;;;;;;5080850;28;19913;-85
2022/04/06 14:05:39;;;;;;;;;;;;;;;;;;5091611;28;19934;-84
2022/04/06 14:08:04;;;;;;;;;;;;;;;;;;5075136;28;19912;-85
2022/04/06 14:10:29;;;;;;;;;;;;;;;;;;5081207;28;19921;-86
2022/04/06 14:12:55;;;;;;;;;;;;;;;;;;5085207;28;20378;-85
2022/04/06 14:15:22;;;;;;;;;;;;;;;;;;5113801;28;19999;-84
2022/04/06 14:17:47;;;;;;;;;;;;;;;;;;5079301;28;19916;-85
2022/04/06 14:20:12;;;;;;;;;;;;;;;;;;5074996;28;19908;-86
2022/04/06 14:22:37;;;;;;;;;;;;;;;;;;5086383;28;19912;-86
2022/04/06 14:25:15;;;;;;;;;;;;;;;;;;5081795;28;19916;-86
2022/04/06 14:27:40;;;;;;;;;;;;;;;;;;5072313;28;20399;-86
2022/04/06 14:30:06;;;;;;;;;;;;;;;;;;5073069;28;19954;-87
2022/04/06 14:32:31;;;;;;;;;;;;;;;;;;5079710;28;19908;-86
2022/04/06 14:34:56;;;;;;;;;;;;;;;;;;5081226;28;19912;-86
2022/04/06 14:37:21;;;;;;;;;;;;;;;;;;5073894;28;19923;-85
2022/04/06 14:39:46;;;;;;;;;;;;;;;;;;5076259;28;20117;-86
2022/04/06 14:42:12;;;;;;;;;;;;;;;;;;5104967;28;19912;-84
2022/04/06 14:44:37;;;;;;;;;;;;;;;;;;5076756;28;19912;-86
2022/04/06 14:47:02;;;;;;;;;;;;;;;;;;5072996;28;19951;-85
2022/04/06 14:49:27;;;;;;;;;;;;;;;;;;5073061;28;19912;-86
2022/04/06 14:51:53;;;;;;;;;;;;;;;;;;5090300;28;20040;-86
2022/04/06 14:54:19;;;;;;;;;;;;;;;;;;5073987;28;19912;-85
2022/04/06 14:56:44;;;;;;;;;;;;;;;;;;5076403;28;19912;-86
2022/04/06 14:59:10;;;;;;;;;;;;;;;;;;5078535;28;19963;-84
2022/04/06 15:01:35;;;;;;;;;;;;;;;;;;5061588;28;19912;-84
2022/04/06 15:04:00;;;;;;;;;;;;;;;;;;5095687;28;19916;-85
2022/04/06 15:06:25;;;;;;;;;;;;;;;;;;5078302;28;20280;-84
2022/04/06 15:08:50;;;;;;;;;;;;;;;;;;5078499;28;20382;-85
2022/04/06 15:11:15;;;;;;;;;;;;;;;;;;5080817;28;19945;-85
2022/04/06 15:13:40;;;;;;;;;;;;;;;;;;5077551;28;19913;-85
2022/04/06 15:16:06;;;;;;;;;;;;;;;;;;5078077;28;20419;-84
2022/04/06 15:18:31;;;;;;;;;;;;;;;;;;5075558;28;20385;-84
2022/04/06 15:20:57;;;;;;;;;;;;;;;;;;5081414;28;19912;-85
2022/04/06 15:23:22;;;;;;;;;;;;;;;;;;5092830;28;19916;-86
2022/04/06 15:25:47;;;;;;;;;;;;;;;;;;5086732;28;19912;-84
2022/04/06 15:28:12;;;;;;;;;;;;;;;;;;5077701;28;20117;-85
2022/04/06 15:30:38;;;;;;;;;;;;;;;;;;5081690;28;20304;-85
2022/04/06 15:33:03;;;;;;;;;;;;;;;;;;5079880;28;19916;-85
2022/04/06 15:38:12;;;;;;;;;;;;;;;;;;5100767;28;20385;-85
2022/04/06 15:40:37;;;;;;;;;;;;;;;;;;5084698;28;20002;-85
2022/04/06 15:43:03;;;;;;;;;;;;;;;;;;5082017;28;20006;-85
2022/04/06 15:45:28;;;;;;;;;;;;;;;;;;5081289;28;19923;-85
2022/04/06 15:47:53;;;;;;;;;;;;;;;;;;5085395;28;19916;-85
2022/04/06 15:50:19;;;;;;;;;;;;;;;;;;5080109;28;20357;-84
2022/04/06 15:52:44;;;;;;;;;;;;;;;;;;5083358;28;19919;-85
2022/04/06 15:55:10;;;;;;;;;;;;;;;;;;5070171;28;19912;-84
2022/04/06 15:57:36;;;;;;;;;;;;;;;;;;5075037;28;19912;-85
2022/04/06 16:00:01;;;;;;;;;;;;;;;;;;5083185;28;19941;-84
2022/04/06 16:02:26;;;;;;;;;;;;;;;;;;5077786;28;20337;-85
2022/04/06 16:04:51;;;;;;;;;;;;;;;;;;5095628;28;20351;-85
2022/04/06 16:07:16;;;;;;;;;;;;;;;;;;5077104;28;20007;-85
2022/04/06 16:09:41;;;;;;;;;;;;;;;;;;5077122;28;20399;-84
2022/04/06 16:12:08;;;;;;;;;;;;;;;;;;5085880;28;19916;-85
2022/04/06 16:14:33;;;;;;;;;;;;;;;;;;5076804;28;19952;-85
2022/04/06 16:16:58;;;;;;;;;;;;;;;;;;5076865;28;19950;-85
2022/04/06 16:19:23;;;;;;;;;;;;;;;;;;5076780;28;19951;-85
2022/04/06 16:21:48;;;;;;;;;;;;;;;;;;5076635;28;19936;-84
2022/04/06 16:24:14;;;;;;;;;;;;;;;;;;5105148;28;19966;-85
2022/04/06 16:26:40;;;;;;;;;;;;;;;;;;5085365;28;20272;-85
2022/04/06 16:29:06;;;;;;;;;;;;;;;;;;5078551;28;19912;-84
2022/04/06 16:31:31;;;;;;;;;;;;;;;;;;5098499;28;19919;-85
2022/04/06 16:33:57;;;;;;;;;;;;;;;;;;5092534;28;19943;-85
2022/04/06 16:36:22;;;;;;;;;;;;;;;;;;5077314;28;20295;-85
2022/04/06 16:38:47;;;;;;;;;;;;;;;;;;5084679;28;20355;-84
2022/04/06 16:41:13;;;;;;;;;;;;;;;;;;5082085;28;20352;-85
2022/04/06 16:43:38;;;;;;;;;;;;;;;;;;5091153;28;19919;-82
2022/04/06 16:46:03;;;;;;;;;;;;;;;;;;5076299;28;19913;-82